sensor_id;sensor_type;location;lat;lon;timestamp;P1;durP1;ratioP1;P2;durP2;ratioP2
50495;SDS011;38806;51.554;5.704;2022-07-29T00:01:30;6.93;;;1.38;;
50495;SDS011;38806;51.554;5.704;2022-07-29T00:03:30;4.35;;;1.92;;
50495;SDS011;38806;51.554;5.704;2022-07-29T00:05:30;8.05;;;2.00;;
50495;SDS011;38806;51.554;5.704;2022-07-29T00:07:31;5.70;;;2.15;;
50495;SDS011;38806;51.554;5.704;2022-07-29T00:09:31;6.75;;;2.97;;
50495;SDS011;38806;51.554;5.704;2022-07-29T00:11:32;6.30;;;1.92;;
50495;SDS011;38806;51.554;5.704;2022-07-29T00:13:32;5.85;;;2.13;;
50495;SDS011;38806;51.554;5.704;2022-07-29T00:15:32;4.22;;;1.85;;
50495;SDS011;38806;51.554;5.704;2022-07-29T00:17:33;5.00;;;1.95;;
50495;SDS011;38806;51.554;5.704;2022-07-29T00:19:34;5.68;;;1.92;;
50495;SDS011;38806;51.554;5.704;2022-07-29T00:21:34;18.05;;;3.85;;
50495;SDS011;38806;51.554;5.704;2022-07-29T00:23:34;8.55;;;3.00;;
50495;SDS011;38806;51.554;5.704;2022-07-29T00:25:34;5.82;;;2.80;;
50495;SDS011;38806;51.554;5.704;2022-07-29T00:27:35;9.88;;;4.03;;
50495;SDS011;38806;51.554;5.704;2022-07-29T00:29:36;5.25;;;3.15;;
50495;SDS011;38806;51.554;5.704;2022-07-29T00:31:36;6.07;;;2.92;;
50495;SDS011;38806;51.554;5.704;2022-07-29T00:33:36;6.55;;;3.13;;
50495;SDS011;38806;51.554;5.704;2022-07-29T00:35:36;7.60;;;3.10;;
50495;SDS011;38806;51.554;5.704;2022-07-29T00:37:46;6.13;;;3.10;;
50495;SDS011;38806;51.554;5.704;2022-07-29T00:39:46;7.10;;;3.38;;
50495;SDS011;38806;51.554;5.704;2022-07-29T00:41:46;5.13;;;3.25;;
50495;SDS011;38806;51.554;5.704;2022-07-29T00:43:47;8.25;;;4.10;;
50495;SDS011;38806;51.554;5.704;2022-07-29T00:45:47;8.25;;;3.58;;
50495;SDS011;38806;51.554;5.704;2022-07-29T00:47:47;7.43;;;3.90;;
50495;SDS011;38806;51.554;5.704;2022-07-29T00:49:48;8.02;;;3.58;;
50495;SDS011;38806;51.554;5.704;2022-07-29T00:51:49;7.65;;;3.22;;
50495;SDS011;38806;51.554;5.704;2022-07-29T00:53:49;6.70;;;3.75;;
50495;SDS011;38806;51.554;5.704;2022-07-29T00:55:50;11.63;;;4.60;;
50495;SDS011;38806;51.554;5.704;2022-07-29T00:57:53;6.32;;;4.00;;
50495;SDS011;38806;51.554;5.704;2022-07-29T00:59:54;9.15;;;4.45;;
50495;SDS011;38806;51.554;5.704;2022-07-29T01:01:55;5.00;;;3.33;;
50495;SDS011;38806;51.554;5.704;2022-07-29T01:03:55;6.07;;;3.53;;
50495;SDS011;38806;51.554;5.704;2022-07-29T01:05:56;9.20;;;4.88;;
50495;SDS011;38806;51.554;5.704;2022-07-29T01:07:56;10.57;;;4.47;;
50495;SDS011;38806;51.554;5.704;2022-07-29T01:09:57;9.70;;;4.30;;
50495;SDS011;38806;51.554;5.704;2022-07-29T01:11:58;15.43;;;4.97;;
50495;SDS011;38806;51.554;5.704;2022-07-29T01:14:00;9.82;;;4.28;;
50495;SDS011;38806;51.554;5.704;2022-07-29T01:16:07;8.27;;;5.20;;
50495;SDS011;38806;51.554;5.704;2022-07-29T01:18:18;8.93;;;4.55;;
50495;SDS011;38806;51.554;5.704;2022-07-29T01:20:26;11.18;;;5.18;;
50495;SDS011;38806;51.554;5.704;2022-07-29T01:24:52;11.23;;;5.75;;
50495;SDS011;38806;51.554;5.704;2022-07-29T01:29:39;8.90;;;6.10;;
50495;SDS011;38806;51.554;5.704;2022-07-29T01:34:03;19.70;;;8.43;;
50495;SDS011;38806;51.554;5.704;2022-07-29T01:36:07;10.60;;;6.40;;
50495;SDS011;38806;51.554;5.704;2022-07-29T01:38:17;13.32;;;8.25;;
50495;SDS011;38806;51.554;5.704;2022-07-29T01:40:23;13.82;;;8.10;;
50495;SDS011;38806;51.554;5.704;2022-07-29T01:44:37;20.83;;;9.75;;
50495;SDS011;38806;51.554;5.704;2022-07-29T01:46:44;11.73;;;9.18;;
50495;SDS011;38806;51.554;5.704;2022-07-29T01:48:53;14.95;;;9.85;;
50495;SDS011;38806;51.554;5.704;2022-07-29T01:50:58;17.33;;;9.77;;
50495;SDS011;38806;51.554;5.704;2022-07-29T01:53:04;16.42;;;9.60;;
50495;SDS011;38806;51.554;5.704;2022-07-29T01:55:12;12.90;;;9.00;;
50495;SDS011;38806;51.554;5.704;2022-07-29T01:57:15;12.38;;;8.43;;
50495;SDS011;38806;51.554;5.704;2022-07-29T01:59:19;13.25;;;8.90;;
50495;SDS011;38806;51.554;5.704;2022-07-29T02:01:20;16.10;;;9.20;;
50495;SDS011;38806;51.554;5.704;2022-07-29T02:03:22;13.43;;;9.23;;
50495;SDS011;38806;51.554;5.704;2022-07-29T02:05:23;14.40;;;9.00;;
50495;SDS011;38806;51.554;5.704;2022-07-29T02:07:28;12.32;;;8.75;;
50495;SDS011;38806;51.554;5.704;2022-07-29T02:09:31;10.85;;;8.52;;
50495;SDS011;38806;51.554;5.704;2022-07-29T02:11:34;11.07;;;7.82;;
50495;SDS011;38806;51.554;5.704;2022-07-29T02:13:35;14.00;;;9.23;;
50495;SDS011;38806;51.554;5.704;2022-07-29T02:15:37;11.35;;;8.20;;
50495;SDS011;38806;51.554;5.704;2022-07-29T02:17:41;13.95;;;8.82;;
50495;SDS011;38806;51.554;5.704;2022-07-29T02:19:44;15.15;;;9.05;;
50495;SDS011;38806;51.554;5.704;2022-07-29T02:21:45;12.35;;;9.05;;
50495;SDS011;38806;51.554;5.704;2022-07-29T02:23:47;11.32;;;7.07;;
50495;SDS011;38806;51.554;5.704;2022-07-29T02:25:50;16.92;;;8.80;;
50495;SDS011;38806;51.554;5.704;2022-07-29T02:27:53;12.30;;;7.47;;
50495;SDS011;38806;51.554;5.704;2022-07-29T02:29:54;10.18;;;6.78;;
50495;SDS011;38806;51.554;5.704;2022-07-29T02:31:57;15.50;;;7.80;;
50495;SDS011;38806;51.554;5.704;2022-07-29T02:33:59;13.90;;;7.47;;
50495;SDS011;38806;51.554;5.704;2022-07-29T02:36:03;16.15;;;7.55;;
50495;SDS011;38806;51.554;5.704;2022-07-29T02:38:04;10.48;;;7.20;;
50495;SDS011;38806;51.554;5.704;2022-07-29T02:40:23;21.70;;;8.60;;
50495;SDS011;38806;51.554;5.704;2022-07-29T02:42:23;12.38;;;8.10;;
50495;SDS011;38806;51.554;5.704;2022-07-29T02:44:26;15.30;;;7.97;;
50495;SDS011;38806;51.554;5.704;2022-07-29T02:46:29;12.63;;;8.50;;
50495;SDS011;38806;51.554;5.704;2022-07-29T02:48:34;15.20;;;8.27;;
50495;SDS011;38806;51.554;5.704;2022-07-29T02:50:42;13.52;;;7.75;;
50495;SDS011;38806;51.554;5.704;2022-07-29T02:53:02;12.80;;;7.85;;
50495;SDS011;38806;51.554;5.704;2022-07-29T02:59:41;11.65;;;8.13;;
50495;SDS011;38806;51.554;5.704;2022-07-29T03:01:43;13.07;;;9.07;;
50495;SDS011;38806;51.554;5.704;2022-07-29T03:03:45;12.48;;;8.65;;
50495;SDS011;38806;51.554;5.704;2022-07-29T03:05:46;16.90;;;9.25;;
50495;SDS011;38806;51.554;5.704;2022-07-29T03:07:54;12.80;;;9.48;;
50495;SDS011;38806;51.554;5.704;2022-07-29T03:09:58;15.90;;;11.00;;
50495;SDS011;38806;51.554;5.704;2022-07-29T03:11:59;15.07;;;10.15;;
50495;SDS011;38806;51.554;5.704;2022-07-29T03:14:00;14.15;;;9.05;;
50495;SDS011;38806;51.554;5.704;2022-07-29T03:16:01;14.27;;;8.32;;
50495;SDS011;38806;51.554;5.704;2022-07-29T03:18:02;15.85;;;9.10;;
50495;SDS011;38806;51.554;5.704;2022-07-29T03:20:03;15.52;;;9.73;;
50495;SDS011;38806;51.554;5.704;2022-07-29T03:22:04;12.98;;;8.68;;
50495;SDS011;38806;51.554;5.704;2022-07-29T03:24:05;14.30;;;9.90;;
50495;SDS011;38806;51.554;5.704;2022-07-29T03:26:05;13.70;;;9.32;;
50495;SDS011;38806;51.554;5.704;2022-07-29T03:28:06;17.55;;;9.95;;
50495;SDS011;38806;51.554;5.704;2022-07-29T03:30:06;12.95;;;8.73;;
50495;SDS011;38806;51.554;5.704;2022-07-29T03:32:08;10.55;;;8.27;;
50495;SDS011;38806;51.554;5.704;2022-07-29T03:34:08;17.38;;;9.43;;
50495;SDS011;38806;51.554;5.704;2022-07-29T03:36:08;12.48;;;8.85;;
50495;SDS011;38806;51.554;5.704;2022-07-29T03:38:09;17.20;;;10.57;;
50495;SDS011;38806;51.554;5.704;2022-07-29T03:40:10;13.60;;;9.75;;
50495;SDS011;38806;51.554;5.704;2022-07-29T03:42:14;16.25;;;9.55;;
50495;SDS011;38806;51.554;5.704;2022-07-29T03:44:16;15.45;;;9.23;;
50495;SDS011;38806;51.554;5.704;2022-07-29T03:46:17;13.82;;;9.50;;
50495;SDS011;38806;51.554;5.704;2022-07-29T03:48:22;14.80;;;9.25;;
50495;SDS011;38806;51.554;5.704;2022-07-29T03:50:25;14.73;;;9.35;;
50495;SDS011;38806;51.554;5.704;2022-07-29T03:52:25;11.20;;;8.73;;
50495;SDS011;38806;51.554;5.704;2022-07-29T03:54:26;17.08;;;8.57;;
50495;SDS011;38806;51.554;5.704;2022-07-29T03:56:26;11.80;;;10.07;;
50495;SDS011;38806;51.554;5.704;2022-07-29T03:58:28;14.40;;;10.13;;
50495;SDS011;38806;51.554;5.704;2022-07-29T04:00:30;13.38;;;9.35;;
50495;SDS011;38806;51.554;5.704;2022-07-29T04:02:31;14.38;;;10.02;;
50495;SDS011;38806;51.554;5.704;2022-07-29T04:04:33;11.90;;;10.13;;
50495;SDS011;38806;51.554;5.704;2022-07-29T04:06:41;14.75;;;9.68;;
50495;SDS011;38806;51.554;5.704;2022-07-29T04:10:43;13.33;;;9.80;;
50495;SDS011;38806;51.554;5.704;2022-07-29T04:12:43;15.65;;;10.27;;
50495;SDS011;38806;51.554;5.704;2022-07-29T04:14:43;19.40;;;10.57;;
50495;SDS011;38806;51.554;5.704;2022-07-29T04:16:44;15.10;;;11.07;;
50495;SDS011;38806;51.554;5.704;2022-07-29T04:18:44;16.67;;;10.68;;
50495;SDS011;38806;51.554;5.704;2022-07-29T04:20:44;15.88;;;12.07;;
50495;SDS011;38806;51.554;5.704;2022-07-29T04:22:44;14.10;;;10.60;;
50495;SDS011;38806;51.554;5.704;2022-07-29T04:24:45;14.82;;;10.77;;
50495;SDS011;38806;51.554;5.704;2022-07-29T04:26:45;14.07;;;9.85;;
50495;SDS011;38806;51.554;5.704;2022-07-29T04:28:46;17.80;;;11.40;;
50495;SDS011;38806;51.554;5.704;2022-07-29T04:30:46;14.10;;;10.65;;
50495;SDS011;38806;51.554;5.704;2022-07-29T04:32:47;17.45;;;10.68;;
50495;SDS011;38806;51.554;5.704;2022-07-29T04:34:47;12.73;;;10.48;;
50495;SDS011;38806;51.554;5.704;2022-07-29T04:36:47;16.10;;;10.35;;
50495;SDS011;38806;51.554;5.704;2022-07-29T04:38:48;19.67;;;11.50;;
50495;SDS011;38806;51.554;5.704;2022-07-29T04:40:48;14.93;;;10.07;;
50495;SDS011;38806;51.554;5.704;2022-07-29T04:42:48;18.65;;;10.98;;
50495;SDS011;38806;51.554;5.704;2022-07-29T04:44:48;14.32;;;11.88;;
50495;SDS011;38806;51.554;5.704;2022-07-29T04:46:49;16.85;;;12.48;;
50495;SDS011;38806;51.554;5.704;2022-07-29T04:48:49;19.15;;;13.40;;
50495;SDS011;38806;51.554;5.704;2022-07-29T04:50:49;12.60;;;10.63;;
50495;SDS011;38806;51.554;5.704;2022-07-29T04:52:49;13.77;;;10.38;;
50495;SDS011;38806;51.554;5.704;2022-07-29T04:54:50;15.10;;;11.18;;
50495;SDS011;38806;51.554;5.704;2022-07-29T04:56:50;13.88;;;10.75;;
50495;SDS011;38806;51.554;5.704;2022-07-29T04:58:51;15.90;;;12.48;;
50495;SDS011;38806;51.554;5.704;2022-07-29T05:00:51;13.98;;;11.27;;
50495;SDS011;38806;51.554;5.704;2022-07-29T05:02:51;17.42;;;12.15;;
50495;SDS011;38806;51.554;5.704;2022-07-29T05:04:51;14.82;;;12.60;;
50495;SDS011;38806;51.554;5.704;2022-07-29T05:06:52;18.98;;;11.85;;
50495;SDS011;38806;51.554;5.704;2022-07-29T05:08:52;15.40;;;11.68;;
50495;SDS011;38806;51.554;5.704;2022-07-29T05:10:52;15.85;;;11.80;;
50495;SDS011;38806;51.554;5.704;2022-07-29T05:12:53;16.50;;;11.60;;
50495;SDS011;38806;51.554;5.704;2022-07-29T05:14:53;23.23;;;13.25;;
50495;SDS011;38806;51.554;5.704;2022-07-29T05:16:53;16.15;;;11.63;;
50495;SDS011;38806;51.554;5.704;2022-07-29T05:18:56;16.02;;;11.07;;
50495;SDS011;38806;51.554;5.704;2022-07-29T05:20:57;14.23;;;10.85;;
50495;SDS011;38806;51.554;5.704;2022-07-29T05:22:57;14.38;;;10.95;;
50495;SDS011;38806;51.554;5.704;2022-07-29T05:24:58;13.88;;;10.73;;
50495;SDS011;38806;51.554;5.704;2022-07-29T05:26:59;14.45;;;11.90;;
50495;SDS011;38806;51.554;5.704;2022-07-29T05:28:59;18.48;;;12.15;;
50495;SDS011;38806;51.554;5.704;2022-07-29T05:30:59;18.20;;;11.98;;
50495;SDS011;38806;51.554;5.704;2022-07-29T05:32:59;18.83;;;12.80;;
50495;SDS011;38806;51.554;5.704;2022-07-29T05:35:00;18.38;;;13.23;;
50495;SDS011;38806;51.554;5.704;2022-07-29T05:37:00;17.98;;;10.73;;
50495;SDS011;38806;51.554;5.704;2022-07-29T05:39:01;15.93;;;11.95;;
50495;SDS011;38806;51.554;5.704;2022-07-29T05:41:01;17.90;;;12.32;;
50495;SDS011;38806;51.554;5.704;2022-07-29T05:43:01;17.15;;;12.82;;
50495;SDS011;38806;51.554;5.704;2022-07-29T05:45:02;18.23;;;12.32;;
50495;SDS011;38806;51.554;5.704;2022-07-29T05:47:03;20.45;;;12.10;;
50495;SDS011;38806;51.554;5.704;2022-07-29T05:49:03;17.02;;;11.85;;
50495;SDS011;38806;51.554;5.704;2022-07-29T05:51:03;15.45;;;12.45;;
50495;SDS011;38806;51.554;5.704;2022-07-29T05:53:04;17.67;;;12.38;;
50495;SDS011;38806;51.554;5.704;2022-07-29T05:55:05;17.88;;;12.07;;
50495;SDS011;38806;51.554;5.704;2022-07-29T05:57:05;16.00;;;13.65;;
50495;SDS011;38806;51.554;5.704;2022-07-29T05:59:06;17.73;;;13.38;;
50495;SDS011;38806;51.554;5.704;2022-07-29T06:01:06;18.75;;;13.13;;
50495;SDS011;38806;51.554;5.704;2022-07-29T06:03:06;16.95;;;12.50;;
50495;SDS011;38806;51.554;5.704;2022-07-29T06:05:07;15.70;;;11.77;;
50495;SDS011;38806;51.554;5.704;2022-07-29T06:07:07;16.13;;;12.98;;
50495;SDS011;38806;51.554;5.704;2022-07-29T06:09:08;20.65;;;12.57;;
50495;SDS011;38806;51.554;5.704;2022-07-29T06:11:08;16.50;;;13.07;;
50495;SDS011;38806;51.554;5.704;2022-07-29T06:13:08;15.98;;;12.00;;
50495;SDS011;38806;51.554;5.704;2022-07-29T06:15:09;15.98;;;11.23;;
50495;SDS011;38806;51.554;5.704;2022-07-29T06:17:09;19.92;;;11.98;;
50495;SDS011;38806;51.554;5.704;2022-07-29T06:19:11;17.90;;;12.52;;
50495;SDS011;38806;51.554;5.704;2022-07-29T06:21:11;17.88;;;11.13;;
50495;SDS011;38806;51.554;5.704;2022-07-29T06:23:12;14.63;;;11.35;;
50495;SDS011;38806;51.554;5.704;2022-07-29T06:25:12;16.58;;;11.70;;
50495;SDS011;38806;51.554;5.704;2022-07-29T06:27:12;13.95;;;11.85;;
50495;SDS011;38806;51.554;5.704;2022-07-29T06:29:12;18.48;;;12.38;;
50495;SDS011;38806;51.554;5.704;2022-07-29T06:31:13;14.77;;;10.57;;
50495;SDS011;38806;51.554;5.704;2022-07-29T06:33:16;16.30;;;11.30;;
50495;SDS011;38806;51.554;5.704;2022-07-29T06:35:18;15.75;;;12.98;;
50495;SDS011;38806;51.554;5.704;2022-07-29T06:37:18;14.30;;;12.38;;
50495;SDS011;38806;51.554;5.704;2022-07-29T06:39:19;16.52;;;11.57;;
50495;SDS011;38806;51.554;5.704;2022-07-29T06:41:19;20.80;;;13.30;;
50495;SDS011;38806;51.554;5.704;2022-07-29T06:43:19;15.75;;;11.88;;
50495;SDS011;38806;51.554;5.704;2022-07-29T06:45:20;20.83;;;12.30;;
50495;SDS011;38806;51.554;5.704;2022-07-29T06:47:20;19.17;;;11.93;;
50495;SDS011;38806;51.554;5.704;2022-07-29T06:49:20;15.48;;;12.07;;
50495;SDS011;38806;51.554;5.704;2022-07-29T06:51:21;15.60;;;11.10;;
50495;SDS011;38806;51.554;5.704;2022-07-29T06:53:21;16.15;;;11.77;;
50495;SDS011;38806;51.554;5.704;2022-07-29T06:55:22;15.32;;;12.93;;
50495;SDS011;38806;51.554;5.704;2022-07-29T06:57:22;15.05;;;11.45;;
50495;SDS011;38806;51.554;5.704;2022-07-29T06:59:23;19.85;;;12.25;;
50495;SDS011;38806;51.554;5.704;2022-07-29T07:01:23;14.57;;;12.38;;
50495;SDS011;38806;51.554;5.704;2022-07-29T07:03:23;16.25;;;11.93;;
50495;SDS011;38806;51.554;5.704;2022-07-29T07:05:24;15.88;;;12.18;;
50495;SDS011;38806;51.554;5.704;2022-07-29T07:07:25;16.23;;;13.20;;
50495;SDS011;38806;51.554;5.704;2022-07-29T07:09:25;18.92;;;12.70;;
50495;SDS011;38806;51.554;5.704;2022-07-29T07:11:25;16.27;;;12.85;;
50495;SDS011;38806;51.554;5.704;2022-07-29T07:13:26;18.30;;;13.85;;
50495;SDS011;38806;51.554;5.704;2022-07-29T07:15:28;17.63;;;11.85;;
50495;SDS011;38806;51.554;5.704;2022-07-29T07:17:28;16.70;;;11.60;;
50495;SDS011;38806;51.554;5.704;2022-07-29T07:19:29;14.98;;;11.60;;
50495;SDS011;38806;51.554;5.704;2022-07-29T07:21:29;14.50;;;11.57;;
50495;SDS011;38806;51.554;5.704;2022-07-29T07:23:30;12.48;;;10.00;;
50495;SDS011;38806;51.554;5.704;2022-07-29T07:25:30;13.07;;;9.95;;
50495;SDS011;38806;51.554;5.704;2022-07-29T07:27:31;16.52;;;10.57;;
50495;SDS011;38806;51.554;5.704;2022-07-29T07:29:31;13.35;;;9.95;;
50495;SDS011;38806;51.554;5.704;2022-07-29T07:31:31;15.18;;;10.02;;
50495;SDS011;38806;51.554;5.704;2022-07-29T07:33:31;13.77;;;10.68;;
50495;SDS011;38806;51.554;5.704;2022-07-29T07:35:32;13.13;;;9.77;;
50495;SDS011;38806;51.554;5.704;2022-07-29T07:37:32;13.73;;;10.15;;
50495;SDS011;38806;51.554;5.704;2022-07-29T07:39:33;12.68;;;8.70;;
50495;SDS011;38806;51.554;5.704;2022-07-29T07:41:33;13.07;;;10.20;;
50495;SDS011;38806;51.554;5.704;2022-07-29T07:43:33;15.20;;;8.88;;
50495;SDS011;38806;51.554;5.704;2022-07-29T07:45:33;12.60;;;9.27;;
50495;SDS011;38806;51.554;5.704;2022-07-29T07:47:36;12.85;;;8.65;;
50495;SDS011;38806;51.554;5.704;2022-07-29T07:49:37;15.95;;;9.45;;
50495;SDS011;38806;51.554;5.704;2022-07-29T07:51:38;12.77;;;8.35;;
50495;SDS011;38806;51.554;5.704;2022-07-29T07:53:38;10.25;;;8.60;;
50495;SDS011;38806;51.554;5.704;2022-07-29T07:55:41;12.88;;;8.20;;
50495;SDS011;38806;51.554;5.704;2022-07-29T07:57:42;9.75;;;7.90;;
50495;SDS011;38806;51.554;5.704;2022-07-29T07:59:43;13.18;;;9.02;;
50495;SDS011;38806;51.554;5.704;2022-07-29T08:01:43;10.18;;;7.43;;
50495;SDS011;38806;51.554;5.704;2022-07-29T08:03:44;9.77;;;7.40;;
50495;SDS011;38806;51.554;5.704;2022-07-29T08:05:44;10.05;;;7.85;;
50495;SDS011;38806;51.554;5.704;2022-07-29T08:07:45;13.52;;;7.78;;
50495;SDS011;38806;51.554;5.704;2022-07-29T08:09:46;18.00;;;7.20;;
50495;SDS011;38806;51.554;5.704;2022-07-29T08:11:46;8.63;;;7.68;;
50495;SDS011;38806;51.554;5.704;2022-07-29T08:13:46;12.57;;;7.30;;
50495;SDS011;38806;51.554;5.704;2022-07-29T08:15:47;11.38;;;8.20;;
50495;SDS011;38806;51.554;5.704;2022-07-29T08:18:08;11.35;;;8.13;;
50495;SDS011;38806;51.554;5.704;2022-07-29T08:20:09;10.90;;;7.47;;
50495;SDS011;38806;51.554;5.704;2022-07-29T08:22:09;9.85;;;8.18;;
50495;SDS011;38806;51.554;5.704;2022-07-29T08:24:10;9.05;;;7.00;;
50495;SDS011;38806;51.554;5.704;2022-07-29T08:26:28;10.77;;;7.90;;
50495;SDS011;38806;51.554;5.704;2022-07-29T08:28:29;11.55;;;7.75;;
50495;SDS011;38806;51.554;5.704;2022-07-29T08:30:29;10.65;;;7.80;;
50495;SDS011;38806;51.554;5.704;2022-07-29T08:32:29;9.35;;;6.78;;
50495;SDS011;38806;51.554;5.704;2022-07-29T08:34:31;9.65;;;6.45;;
50495;SDS011;38806;51.554;5.704;2022-07-29T08:36:32;8.18;;;6.80;;
50495;SDS011;38806;51.554;5.704;2022-07-29T08:38:33;10.07;;;6.85;;
50495;SDS011;38806;51.554;5.704;2022-07-29T08:40:33;8.40;;;6.28;;
50495;SDS011;38806;51.554;5.704;2022-07-29T08:42:34;8.10;;;5.88;;
50495;SDS011;38806;51.554;5.704;2022-07-29T08:44:34;9.13;;;6.53;;
50495;SDS011;38806;51.554;5.704;2022-07-29T08:46:37;8.02;;;5.80;;
50495;SDS011;38806;51.554;5.704;2022-07-29T08:48:38;8.25;;;5.85;;
50495;SDS011;38806;51.554;5.704;2022-07-29T08:50:41;7.38;;;6.50;;
50495;SDS011;38806;51.554;5.704;2022-07-29T08:52:42;8.13;;;5.35;;
50495;SDS011;38806;51.554;5.704;2022-07-29T08:54:43;6.68;;;4.75;;
50495;SDS011;38806;51.554;5.704;2022-07-29T08:56:44;7.65;;;5.13;;
50495;SDS011;38806;51.554;5.704;2022-07-29T08:58:48;8.18;;;5.53;;
50495;SDS011;38806;51.554;5.704;2022-07-29T09:00:50;5.97;;;4.28;;
50495;SDS011;38806;51.554;5.704;2022-07-29T09:02:56;9.18;;;4.88;;
50495;SDS011;38806;51.554;5.704;2022-07-29T09:04:58;6.32;;;4.35;;
50495;SDS011;38806;51.554;5.704;2022-07-29T09:07:02;9.45;;;5.50;;
50495;SDS011;38806;51.554;5.704;2022-07-29T09:09:04;6.70;;;4.65;;
50495;SDS011;38806;51.554;5.704;2022-07-29T09:11:05;11.45;;;5.50;;
50495;SDS011;38806;51.554;5.704;2022-07-29T09:13:07;7.18;;;5.55;;
50495;SDS011;38806;51.554;5.704;2022-07-29T09:15:07;7.67;;;5.00;;
50495;SDS011;38806;51.554;5.704;2022-07-29T09:17:08;7.55;;;4.93;;
50495;SDS011;38806;51.554;5.704;2022-07-29T09:21:40;8.00;;;4.53;;
50495;SDS011;38806;51.554;5.704;2022-07-29T09:24:08;6.57;;;4.90;;
50495;SDS011;38806;51.554;5.704;2022-07-29T09:26:10;7.60;;;4.38;;
50495;SDS011;38806;51.554;5.704;2022-07-29T09:28:12;7.63;;;4.50;;
50495;SDS011;38806;51.554;5.704;2022-07-29T09:30:14;5.75;;;4.30;;
50495;SDS011;38806;51.554;5.704;2022-07-29T09:32:14;6.97;;;5.18;;
50495;SDS011;38806;51.554;5.704;2022-07-29T09:34:16;6.68;;;4.45;;
50495;SDS011;38806;51.554;5.704;2022-07-29T09:36:20;9.55;;;5.13;;
50495;SDS011;38806;51.554;5.704;2022-07-29T09:38:21;11.20;;;4.65;;
50495;SDS011;38806;51.554;5.704;2022-07-29T09:40:26;12.63;;;6.20;;
50495;SDS011;38806;51.554;5.704;2022-07-29T09:42:28;11.23;;;6.07;;
50495;SDS011;38806;51.554;5.704;2022-07-29T09:49:08;7.18;;;4.80;;
50495;SDS011;38806;51.554;5.704;2022-07-29T09:51:19;7.18;;;4.25;;
50495;SDS011;38806;51.554;5.704;2022-07-29T09:53:30;8.43;;;5.18;;
50495;SDS011;38806;51.554;5.704;2022-07-29T09:55:40;7.28;;;5.82;;
50495;SDS011;38806;51.554;5.704;2022-07-29T09:57:46;10.85;;;4.65;;
50495;SDS011;38806;51.554;5.704;2022-07-29T09:59:57;7.03;;;5.13;;
50495;SDS011;38806;51.554;5.704;2022-07-29T10:01:57;6.22;;;4.55;;
50495;SDS011;38806;51.554;5.704;2022-07-29T10:03:58;10.77;;;4.63;;
50495;SDS011;38806;51.554;5.704;2022-07-29T10:06:08;9.98;;;5.05;;
50495;SDS011;38806;51.554;5.704;2022-07-29T10:08:10;7.78;;;4.32;;
50495;SDS011;38806;51.554;5.704;2022-07-29T10:10:18;9.27;;;4.32;;
50495;SDS011;38806;51.554;5.704;2022-07-29T10:14:20;13.83;;;4.87;;
50495;SDS011;38806;51.554;5.704;2022-07-29T10:16:20;8.15;;;4.50;;
50495;SDS011;38806;51.554;5.704;2022-07-29T10:18:20;5.22;;;3.90;;
50495;SDS011;38806;51.554;5.704;2022-07-29T10:20:22;9.70;;;4.70;;
50495;SDS011;38806;51.554;5.704;2022-07-29T10:22:23;7.97;;;3.72;;
50495;SDS011;38806;51.554;5.704;2022-07-29T10:24:24;9.45;;;6.70;;
50495;SDS011;38806;51.554;5.704;2022-07-29T10:26:27;7.25;;;5.70;;
50495;SDS011;38806;51.554;5.704;2022-07-29T10:28:30;8.07;;;4.00;;
50495;SDS011;38806;51.554;5.704;2022-07-29T10:30:33;10.55;;;5.88;;
50495;SDS011;38806;51.554;5.704;2022-07-29T10:37:17;12.15;;;5.68;;
50495;SDS011;38806;51.554;5.704;2022-07-29T10:44:24;7.18;;;5.75;;
50495;SDS011;38806;51.554;5.704;2022-07-29T10:46:25;6.72;;;4.72;;
50495;SDS011;38806;51.554;5.704;2022-07-29T10:48:27;6.95;;;4.47;;
50495;SDS011;38806;51.554;5.704;2022-07-29T10:50:27;8.70;;;5.03;;
50495;SDS011;38806;51.554;5.704;2022-07-29T10:54:56;8.40;;;7.10;;
50495;SDS011;38806;51.554;5.704;2022-07-29T10:57:10;8.60;;;5.55;;
50495;SDS011;38806;51.554;5.704;2022-07-29T11:01:29;8.25;;;5.50;;
50495;SDS011;38806;51.554;5.704;2022-07-29T11:03:48;8.63;;;5.78;;
50495;SDS011;38806;51.554;5.704;2022-07-29T11:05:55;7.30;;;4.57;;
50495;SDS011;38806;51.554;5.704;2022-07-29T11:10:23;6.22;;;4.57;;
50495;SDS011;38806;51.554;5.704;2022-07-29T11:17:01;7.85;;;4.63;;
50495;SDS011;38806;51.554;5.704;2022-07-29T11:21:34;9.57;;;4.15;;
50495;SDS011;38806;51.554;5.704;2022-07-29T11:23:35;6.82;;;3.88;;
50495;SDS011;38806;51.554;5.704;2022-07-29T11:25:38;7.55;;;4.13;;
50495;SDS011;38806;51.554;5.704;2022-07-29T11:27:38;6.65;;;3.90;;
50495;SDS011;38806;51.554;5.704;2022-07-29T11:29:49;5.40;;;3.83;;
50495;SDS011;38806;51.554;5.704;2022-07-29T11:31:51;6.13;;;4.22;;
50495;SDS011;38806;51.554;5.704;2022-07-29T11:33:55;6.68;;;4.80;;
50495;SDS011;38806;51.554;5.704;2022-07-29T11:36:09;10.38;;;6.40;;
50495;SDS011;38806;51.554;5.704;2022-07-29T11:40:22;12.32;;;5.13;;
50495;SDS011;38806;51.554;5.704;2022-07-29T11:44:47;10.25;;;5.97;;
50495;SDS011;38806;51.554;5.704;2022-07-29T11:46:58;7.15;;;4.43;;
50495;SDS011;38806;51.554;5.704;2022-07-29T11:48:59;7.40;;;4.68;;
50495;SDS011;38806;51.554;5.704;2022-07-29T11:50:59;6.95;;;3.72;;
50495;SDS011;38806;51.554;5.704;2022-07-29T11:53:00;7.32;;;4.32;;
50495;SDS011;38806;51.554;5.704;2022-07-29T11:55:03;7.10;;;4.68;;
50495;SDS011;38806;51.554;5.704;2022-07-29T11:57:09;6.35;;;3.55;;
50495;SDS011;38806;51.554;5.704;2022-07-29T11:59:09;8.20;;;5.10;;
50495;SDS011;38806;51.554;5.704;2022-07-29T12:01:12;6.47;;;4.20;;
50495;SDS011;38806;51.554;5.704;2022-07-29T12:03:22;7.15;;;4.47;;
50495;SDS011;38806;51.554;5.704;2022-07-29T12:05:32;8.57;;;4.18;;
50495;SDS011;38806;51.554;5.704;2022-07-29T12:07:34;10.15;;;3.35;;
50495;SDS011;38806;51.554;5.704;2022-07-29T12:09:34;10.35;;;5.30;;
50495;SDS011;38806;51.554;5.704;2022-07-29T12:11:35;10.05;;;5.68;;
50495;SDS011;38806;51.554;5.704;2022-07-29T12:13:39;7.25;;;5.38;;
50495;SDS011;38806;51.554;5.704;2022-07-29T12:15:40;7.68;;;4.13;;
50495;SDS011;38806;51.554;5.704;2022-07-29T12:17:40;4.90;;;3.15;;
50495;SDS011;38806;51.554;5.704;2022-07-29T12:19:42;4.90;;;3.55;;
50495;SDS011;38806;51.554;5.704;2022-07-29T12:21:44;5.45;;;4.10;;
50495;SDS011;38806;51.554;5.704;2022-07-29T12:23:51;9.85;;;4.05;;
50495;SDS011;38806;51.554;5.704;2022-07-29T12:25:54;8.05;;;5.63;;
50495;SDS011;38806;51.554;5.704;2022-07-29T12:27:58;5.82;;;3.30;;
50495;SDS011;38806;51.554;5.704;2022-07-29T12:30:00;7.72;;;4.50;;
50495;SDS011;38806;51.554;5.704;2022-07-29T12:32:05;8.52;;;4.93;;
50495;SDS011;38806;51.554;5.704;2022-07-29T12:34:06;7.47;;;3.83;;
50495;SDS011;38806;51.554;5.704;2022-07-29T12:36:06;5.93;;;2.90;;
50495;SDS011;38806;51.554;5.704;2022-07-29T12:38:09;8.43;;;3.70;;
50495;SDS011;38806;51.554;5.704;2022-07-29T12:40:12;6.05;;;3.63;;
50495;SDS011;38806;51.554;5.704;2022-07-29T12:42:13;6.40;;;3.90;;
50495;SDS011;38806;51.554;5.704;2022-07-29T12:44:14;4.53;;;2.97;;
50495;SDS011;38806;51.554;5.704;2022-07-29T12:46:15;6.47;;;3.47;;
50495;SDS011;38806;51.554;5.704;2022-07-29T12:48:16;5.63;;;2.95;;
50495;SDS011;38806;51.554;5.704;2022-07-29T12:50:17;4.90;;;3.85;;
50495;SDS011;38806;51.554;5.704;2022-07-29T12:54:28;7.32;;;3.40;;
50495;SDS011;38806;51.554;5.704;2022-07-29T12:56:29;5.70;;;2.97;;
50495;SDS011;38806;51.554;5.704;2022-07-29T12:58:30;9.60;;;3.58;;
50495;SDS011;38806;51.554;5.704;2022-07-29T13:00:38;6.28;;;3.60;;
50495;SDS011;38806;51.554;5.704;2022-07-29T13:02:39;9.18;;;3.92;;